Time;durP1;ratioP1;P1;durP2;ratioP2;P2;SDS_P1;SDS_P2;PMS_P1;PMS_P2;Temp;Humidity;BMP_temperature;BMP_pressure;BME280_temperature;BME280_humidity;BME280_pressure;Samples;Min_cycle;Max_cycle;Signal;HPM_P1;HPM_P2
2021/08/30 00:01:10;;;;;;;10.32;5.15;;;;;;;15.62;98.67;99866.22;5107159;28;20352;-63
2021/08/30 00:03:36;;;;;;;9.32;5.20;;;;;;;15.64;98.88;99874.16;5107757;28;20368;-63
2021/08/30 00:06:01;;;;;;;9.18;5.10;;;;;;;15.58;98.82;99856.75;5106950;28;20059;-63
2021/08/30 00:08:27;;;;;;;11.68;5.93;;;;;;;15.55;98.56;99856.28;5107433;28;20028;-63
2021/08/30 00:10:52;;;;;;;7.85;5.45;;;;;;;15.65;99.04;99863.16;5107586;28;20035;-63
2021/08/30 00:13:17;;;;;;;14.02;6.22;;;;;;;15.66;98.60;99864.84;5107148;28;20024;-63
2021/08/30 00:15:43;;;;;;;13.68;6.18;;;;;;;15.66;98.46;99872.94;5088793;28;20035;-63
2021/08/30 00:18:08;;;;;;;11.10;6.30;;;;;;;15.74;97.74;99861.25;5106788;28;20375;-63
2021/08/30 00:20:34;;;;;;;11.00;6.07;;;;;;;15.69;97.97;99856.38;5107690;28;20643;-62
2021/08/30 00:22:59;;;;;;;9.40;5.45;;;;;;;15.64;97.68;99853.34;5107036;28;20102;-63
2021/08/30 00:25:25;;;;;;;9.70;5.00;;;;;;;15.62;98.41;99863.50;5107169;28;20035;-62
2021/08/30 00:27:50;;;;;;;8.85;5.25;;;;;;;15.63;98.77;99869.75;5107173;28;20121;-63
2021/08/30 00:30:16;;;;;;;8.18;4.90;;;;;;;15.65;98.42;99863.16;5088159;28;20047;-63
2021/08/30 00:32:41;;;;;;;8.50;4.47;;;;;;;15.63;97.96;99865.19;5107670;28;20027;-63
2021/08/30 00:35:07;;;;;;;10.95;4.65;;;;;;;15.61;98.50;99869.09;5107058;28;20031;-62
2021/08/30 00:37:33;;;;;;;7.20;4.22;;;;;;;15.64;98.43;99876.84;5088927;28;20034;-63
2021/08/30 00:39:59;;;;;;;7.63;4.32;;;;;;;15.55;98.51;99870.63;5106693;28;20024;-63
2021/08/30 00:42:26;;;;;;;7.55;4.15;;;;;;;15.57;99.08;99873.16;5107197;28;20027;-63
2021/08/30 00:44:53;;;;;;;6.40;4.13;;;;;;;15.57;99.37;99875.84;5106942;28;20030;-63
2021/08/30 00:47:19;;;;;;;4.72;3.38;;;;;;;15.55;99.53;99881.44;5106421;28;20043;-63
2021/08/30 00:49:44;;;;;;;5.40;3.35;;;;;;;15.56;99.29;99880.44;5106639;28;20040;-63
2021/08/30 00:52:10;;;;;;;5.60;3.92;;;;;;;15.45;99.11;99870.00;5106482;28;20023;-63
2021/08/30 00:54:36;;;;;;;5.57;4.03;;;;;;;15.45;99.53;99875.41;5107005;28;20028;-63
2021/08/30 00:57:02;;;;;;;4.13;3.35;;;;;;;15.55;99.82;99883.31;5106503;28;20036;-63
2021/08/30 00:59:28;;;;;;;6.00;3.47;;;;;;;15.44;99.39;99862.06;5106873;28;20102;-63
2021/08/30 01:01:54;;;;;;;4.47;3.38;;;;;;;15.56;99.70;99874.19;5106604;28;20493;-63
2021/08/30 01:04:19;;;;;;;6.53;3.72;;;;;;;15.59;99.68;99882.78;5106462;28;20023;-63
2021/08/30 01:06:55;;;;;;;5.00;3.20;;;;;;;15.63;99.50;99883.25;5106787;28;20098;-62
2021/08/30 01:09:36;;;;;;;6.28;3.40;;;;;;;15.62;99.36;99874.31;5107570;28;20104;-62
2021/08/30 01:12:10;;;;;;;4.90;3.75;;;;;;;15.65;99.32;99879.38;5110170;28;20031;-63
2021/08/30 01:14:56;;;;;;;;;;;;;;;15.65;99.41;99878.53;5111389;28;20467;-63
2021/08/30 01:17:23;;;;;;;5.38;4.15;;;;;;;15.69;99.36;99875.28;5109614;28;20004;-63
2021/08/30 01:19:59;;;;;;;5.30;3.80;;;;;;;15.68;99.48;99876.28;5110839;28;20023;-63
2021/08/30 01:22:26;;;;;;;7.00;5.13;;;;;;;15.66;99.19;99864.84;5091681;28;20503;-63
2021/08/30 01:24:53;;;;;;;6.88;4.30;;;;;;;15.67;99.17;99866.50;5110672;28;20149;-63
2021/08/30 01:27:19;;;;;;;5.32;3.80;;;;;;;15.71;99.35;99869.72;5110073;28;20387;-63
2021/08/30 01:29:56;;;;;;;6.18;4.28;;;;;;;15.72;99.33;99871.38;5110617;28;20041;-63
2021/08/30 01:32:25;;;;;;;7.45;5.18;;;;;;;15.73;99.06;99873.06;5110350;28;20142;-62
2021/08/30 01:34:50;;;;;;;4.53;4.00;;;;;;;15.66;98.88;99863.97;5110287;28;20518;-63
2021/08/30 01:37:16;;;;;;;4.80;4.30;;;;;;;15.69;99.13;99872.59;5110017;28;20019;-63
2021/08/30 01:39:43;;;;;;;7.45;4.65;;;;;;;15.72;99.46;99871.38;5110320;28;20044;-63
2021/08/30 01:42:09;;;;;;;10.57;5.15;;;;;;;15.63;99.21;99857.06;5110293;28;20030;-63
2021/08/30 01:44:35;;;;;;;4.85;3.92;;;;;;;15.70;98.88;99873.41;5110683;28;20036;-63
2021/08/30 01:47:01;;;;;;;7.82;4.38;;;;;;;15.75;99.16;99871.88;5091938;28;20030;-64
2021/08/30 01:49:28;;;;;;;6.55;4.28;;;;;;;15.75;99.06;99862.91;5109687;28;20055;-63
2021/08/30 01:51:55;;;;;;;6.13;4.05;;;;;;;15.72;99.12;99860.56;5110028;28;20701;-63
2021/08/30 01:54:23;;;;;;;6.40;4.88;;;;;;;15.71;98.68;99867.00;5109539;28;20319;-63
2021/08/30 01:56:51;;;;;;;7.35;4.22;;;;;;;15.60;98.95;99838.50;5109954;28;20023;-63
2021/08/30 02:02:05;;;;;;;7.45;4.63;;;;;;;15.75;98.84;99852.94;5109718;28;20140;-64
2021/08/30 02:04:30;;;;;;;7.32;4.65;;;;;;;15.74;98.48;99858.53;5109954;28;20065;-63
2021/08/30 02:06:56;;;;;;;4.65;4.22;;;;;;;15.78;98.30;99858.00;5109920;28;20051;-61
2021/08/30 02:09:21;;;;;;;6.25;4.35;;;;;;;15.79;98.32;99856.97;5109197;28;20031;-63
2021/08/30 02:11:47;;;;;;;5.88;4.38;;;;;;;15.67;98.02;99842.19;5109685;28;20098;-63
2021/08/30 02:14:13;;;;;;;6.32;4.32;;;;;;;15.76;98.27;99859.19;5109491;28;20110;-62
2021/08/30 02:16:38;;;;;;;7.32;4.65;;;;;;;15.75;98.34;99861.06;5109705;28;20356;-62
2021/08/30 02:19:33;;;;;;;8.40;4.75;;;;;;;15.74;98.88;99862.06;5108808;28;20099;-62
2021/08/30 02:22:12;;;;;;;6.90;5.07;;;;;;;15.73;98.58;99856.84;5108585;28;20023;-63
2021/08/30 02:24:47;;;;;;;6.93;4.05;;;;;;;15.74;98.89;99850.44;5109450;28;20027;-63
2021/08/30 02:27:32;;;;;;;5.43;4.65;;;;;;;15.68;98.48;99841.16;5109138;28;20043;-63
2021/08/30 02:30:05;;;;;;;8.95;5.30;;;;;;;15.74;98.55;99839.63;5109120;28;20034;-63
2021/08/30 02:32:33;;;;;;;8.77;5.30;;;;;;;15.74;98.42;99848.53;5109153;28;20404;-63
2021/08/30 02:35:03;;;;;;;7.35;4.60;;;;;;;15.76;98.38;99846.50;5109033;28;20382;-63
2021/08/30 02:37:31;;;;;;;6.80;5.00;;;;;;;15.77;98.02;99850.91;5109324;28;20073;-63
2021/08/30 02:39:58;;;;;;;7.45;5.40;;;;;;;15.76;98.29;99842.97;5108834;28;20032;-63
2021/08/30 02:42:24;;;;;;;8.27;4.45;;;;;;;15.74;98.25;99845.84;5108521;28;20356;-63
2021/08/30 02:44:50;;;;;;;7.45;5.32;;;;;;;15.71;98.24;99845.38;5109099;28;20011;-63
2021/08/30 02:47:18;;;;;;;7.85;5.10;;;;;;;15.73;98.05;99849.56;5108611;28;20089;-64
2021/08/30 02:49:45;;;;;;;6.13;4.70;;;;;;;15.70;97.89;99841.81;5090604;28;20043;-64
2021/08/30 02:52:13;;;;;;;5.72;4.47;;;;;;;15.74;97.90;99853.13;5108558;28;20023;-63
2021/08/30 02:54:40;;;;;;;6.53;5.10;;;;;;;15.75;98.13;99854.81;5108631;28;20084;-64
2021/08/30 02:57:06;;;;;;;5.72;4.80;;;;;;;15.67;98.10;99849.44;5108341;28;20043;-63
2021/08/30 02:59:33;;;;;;;5.70;4.78;;;;;;;15.70;98.08;99849.94;5108576;28;20372;-63
2021/08/30 03:02:00;;;;;;;7.43;4.65;;;;;;;15.69;98.11;99848.25;5108887;28;20034;-64
2021/08/30 03:04:27;;;;;;;6.75;4.85;;;;;;;15.69;97.99;99850.97;5090166;28;20016;-63
2021/08/30 03:06:53;;;;;;;8.65;5.43;;;;;;;15.67;97.93;99849.44;5108603;28;20433;-63
2021/08/30 03:09:18;;;;;;;8.30;5.30;;;;;;;15.64;97.78;99853.34;5108116;28;20032;-63
2021/08/30 03:11:47;;;;;;;7.00;5.28;;;;;;;15.65;97.31;99844.22;5108732;28;20063;-63
2021/08/30 03:14:16;;;;;;;10.88;6.13;;;;;;;15.68;97.07;99859.25;5107207;28;20035;-63
2021/08/30 03:16:42;;;;;;;8.35;5.80;;;;;;;15.67;96.28;99858.41;5108450;28;20028;-64
2021/08/30 03:19:11;;;;;;;6.78;5.32;;;;;;;15.65;96.94;99857.75;5106352;28;20020;-63
2021/08/30 03:21:38;;;;;;;8.00;5.45;;;;;;;15.56;96.77;99853.41;5107717;28;20031;-63
2021/08/30 03:24:06;;;;;;;8.60;5.38;;;;;;;15.62;96.66;99868.91;5107194;28;20042;-62
2021/08/30 03:26:33;;;;;;;9.80;5.32;;;;;;;15.61;96.61;99866.41;5107379;28;20081;-63
2021/08/30 03:28:59;;;;;;;6.70;5.50;;;;;;;15.61;95.96;99869.09;5088719;28;20024;-63
2021/08/30 03:31:27;;;;;;;10.05;5.72;;;;;;;15.57;95.64;99865.88;5106389;28;20045;-62
2021/08/30 03:33:57;;;;;;;8.20;5.60;;;;;;;15.56;95.72;99868.78;5106838;28;20035;-62
2021/08/30 03:36:24;;;;;;;10.40;5.80;;;;;;;15.51;96.11;99871.19;5087473;28;20133;-63
2021/08/30 03:38:50;;;;;;;9.35;5.30;;;;;;;15.48;96.26;99864.25;5089011;28;20049;-62
2021/08/30 03:41:17;;;;;;;10.20;5.53;;;;;;;15.45;96.06;99870.00;5105417;28;20469;-64
2021/08/30 03:43:44;;;;;;;6.10;5.38;;;;;;;15.44;96.19;99873.72;5107513;28;20027;-62
2021/08/30 03:46:12;;;;;;;9.57;5.07;;;;;;;15.39;95.79;99868.03;5107029;28;20047;-63
2021/08/30 03:48:38;;;;;;;11.30;5.28;;;;;;;15.35;96.09;99869.34;5088378;28;20051;-63
2021/08/30 03:51:05;;;;;;;7.57;5.80;;;;;;;15.35;95.98;99876.63;5106634;28;20390;-63
2021/08/30 03:53:33;;;;;;;7.03;5.70;;;;;;;15.28;95.93;99868.38;5107739;28;20106;-63
2021/08/30 03:55:59;;;;;;;6.93;5.32;;;;;;;15.26;95.70;99867.69;5107224;28;20019;-62
2021/08/30 03:58:26;;;;;;;7.18;5.07;;;;;;;15.21;95.93;99875.50;5107285;28;20039;-62
2021/08/30 04:00:54;;;;;;;6.45;4.70;;;;;;;15.18;96.60;99891.19;5107704;28;20031;-63
2021/08/30 04:03:21;;;;;;;6.68;5.15;;;;;;;15.06;96.79;99871.00;5107103;28;20448;-63
2021/08/30 04:05:49;;;;;;;7.50;5.03;;;;;;;15.08;96.74;99879.75;5107463;28;20022;-62
2021/08/30 04:08:15;;;;;;;5.57;4.90;;;;;;;15.05;96.30;99880.94;5107513;28;20019;-63
2021/08/30 04:10:41;;;;;;;6.85;5.07;;;;;;;15.02;96.87;99886.69;5107365;28;20414;-62
2021/08/30 04:13:07;;;;;;;6.45;4.95;;;;;;;14.98;97.01;99879.13;5106428;28;20023;-62
2021/08/30 04:15:32;;;;;;;7.60;5.13;;;;;;;14.95;97.26;99883.00;5106999;28;20046;-62
2021/08/30 04:17:59;;;;;;;8.20;4.80;;;;;;;14.92;97.51;99885.19;5106615;28;20168;-63
2021/08/30 04:20:24;;;;;;;6.32;4.93;;;;;;;14.79;97.39;99869.56;5106999;28;20041;-62
2021/08/30 04:22:50;;;;;;;6.90;5.30;;;;;;;14.86;97.79;99886.75;5107118;28;20103;-63
2021/08/30 04:25:16;;;;;;;6.95;5.47;;;;;;;14.84;97.67;99893.34;5107007;28;20047;-63
2021/08/30 04:27:42;;;;;;;7.60;5.13;;;;;;;14.86;97.50;99896.69;5107270;28;20033;-62
2021/08/30 04:30:09;;;;;;;5.57;4.95;;;;;;;14.79;97.47;99893.00;5088439;28;20024;-63
2021/08/30 04:32:37;;;;;;;7.10;5.50;;;;;;;14.81;97.78;99889.13;5088933;28;20027;-63
2021/08/30 04:35:05;;;;;;;9.65;5.63;;;;;;;14.60;97.89;99855.56;5107248;28;20034;-62
2021/08/30 04:37:30;;;;;;;6.95;5.07;;;;;;;14.78;97.86;99889.47;5107014;28;20019;-63
2021/08/30 04:39:56;;;;;;;9.02;5.82;;;;;;;14.74;97.71;99884.59;5107155;28;20367;-63
2021/08/30 04:42:21;;;;;;;8.55;6.18;;;;;;;14.70;97.93;99889.47;5088406;28;20450;-63
2021/08/30 04:44:47;;;;;;;8.98;5.43;;;;;;;14.75;97.98;99895.22;5106838;28;20364;-63
2021/08/30 04:47:12;;;;;;;10.20;6.05;;;;;;;14.73;97.76;99899.94;5106776;28;20046;-63
2021/08/30 04:49:38;;;;;;;8.77;6.15;;;;;;;14.76;98.25;99898.72;5104502;28;20453;-63
2021/08/30 04:52:05;;;;;;;9.27;6.45;;;;;;;14.78;98.31;99894.03;5107027;28;20039;-63
2021/08/30 04:54:30;;;;;;;8.38;5.72;;;;;;;14.78;98.16;99897.56;5106788;28;20088;-63
2021/08/30 04:56:56;;;;;;;10.45;6.07;;;;;;;14.82;97.91;99907.00;5107344;28;20027;-63
2021/08/30 04:59:21;;;;;;;10.73;6.85;;;;;;;14.83;97.81;99908.69;5106711;28;20028;-63
2021/08/30 05:01:47;;;;;;;7.40;5.90;;;;;;;14.83;97.94;99914.09;5107187;28;20020;-63
2021/08/30 05:04:12;;;;;;;8.38;5.75;;;;;;;14.74;97.75;99881.88;5106613;28;20031;-63
2021/08/30 05:06:38;;;;;;;6.82;5.50;;;;;;;14.90;97.86;99903.44;5088699;28;20045;-63
2021/08/30 05:09:03;;;;;;;8.70;5.97;;;;;;;14.86;97.75;99897.53;5106447;28;20031;-63
2021/08/30 05:11:28;;;;;;;9.50;5.65;;;;;;;14.97;96.39;99905.31;5106410;28;20024;-63
2021/08/30 05:13:54;;;;;;;10.07;6.15;;;;;;;14.97;96.14;99917.94;5106500;28;20399;-63
2021/08/30 05:16:19;;;;;;;7.40;5.70;;;;;;;14.96;96.14;99917.09;5087973;28;20050;-63
2021/08/30 05:18:45;;;;;;;7.97;6.07;;;;;;;14.92;96.85;99913.06;5106990;28;20367;-63
2021/08/30 05:21:10;;;;;;;9.52;5.75;;;;;;;14.91;96.94;99908.69;5106371;28;20072;-63
2021/08/30 05:23:36;;;;;;;8.50;5.20;;;;;;;14.90;97.12;99909.69;5106794;28;20080;-63
2021/08/30 05:26:02;;;;;;;8.13;5.95;;;;;;;14.95;97.44;99918.13;5106609;28;20123;-63
2021/08/30 05:28:27;;;;;;;6.93;5.93;;;;;;;14.98;96.99;99911.53;5104866;28;20077;-63
2021/08/30 05:30:53;;;;;;;6.40;5.70;;;;;;;15.06;96.73;99904.22;5101859;28;20039;-63
2021/08/30 05:33:19;;;;;;;7.07;5.32;;;;;;;15.14;96.98;99904.22;5103530;28;20027;-63
2021/08/30 05:35:44;;;;;;;7.53;6.05;;;;;;;15.29;96.37;99915.16;5104210;28;20068;-63
2021/08/30 05:38:10;;;;;;;6.50;4.95;;;;;;;15.44;96.63;99902.59;5104829;28;20076;-63
2021/08/30 05:40:36;;;;;;;5.97;5.38;;;;;;;15.63;95.22;99907.59;5106498;28;20024;-63
2021/08/30 05:43:02;;;;;;;7.38;5.35;;;;;;;15.77;94.36;99904.97;5106132;28;20027;-63
2021/08/30 05:45:28;;;;;;;5.40;4.90;;;;;;;15.92;93.21;99904.25;5106100;28;20375;-63
2021/08/30 05:47:54;;;;;;;6.55;5.28;;;;;;;16.09;90.76;99895.81;5106330;28;20077;-63
2021/08/30 05:50:20;;;;;;;9.00;5.50;;;;;;;16.19;90.65;99898.28;5105723;28;20043;-63
2021/08/30 05:52:45;;;;;;;6.18;5.45;;;;;;;16.30;90.25;99897.84;5106165;28;20031;-63
2021/08/30 05:55:11;;;;;;;5.85;5.28;;;;;;;16.48;88.38;99895.72;5087431;28;20015;-63
2021/08/30 05:57:37;;;;;;;6.60;5.93;;;;;;;16.63;87.18;99892.00;5109744;28;20035;-63
2021/08/30 06:00:05;;;;;;;6.78;5.25;;;;;;;16.89;84.93;99897.00;5109863;28;20035;-63
2021/08/30 06:02:30;;;;;;;6.13;5.07;;;;;;;16.97;84.57;99903.19;5109829;28;20020;-63
2021/08/30 06:04:56;;;;;;;5.35;4.75;;;;;;;17.10;84.07;99897.97;5091412;28;20027;-63
2021/08/30 06:07:21;;;;;;;6.88;4.80;;;;;;;17.26;82.66;99899.66;5109637;28;20486;-63
2021/08/30 06:09:46;;;;;;;6.88;4.78;;;;;;;17.40;81.28;99894.22;5091417;28;20031;-64
2021/08/30 06:12:12;;;;;;;6.20;4.60;;;;;;;17.51;80.70;99898.34;5109218;28;20550;-63
2021/08/30 06:14:38;;;;;;;5.90;4.97;;;;;;;17.58;79.26;99893.84;5109644;28;20039;-63
2021/08/30 06:17:03;;;;;;;5.70;4.85;;;;;;;17.77;78.61;99894.06;5091064;28;20365;-63
2021/08/30 06:19:29;;;;;;;5.53;4.88;;;;;;;17.77;79.24;99901.38;5109065;28;20056;-63
2021/08/30 06:21:54;;;;;;;5.25;4.75;;;;;;;17.85;78.74;99904.81;5109547;28;20039;-63
2021/08/30 06:24:20;;;;;;;6.35;5.35;;;;;;;18.06;76.22;99904.84;5090941;28;20043;-63
2021/08/30 06:26:46;;;;;;;6.93;5.97;;;;;;;18.18;75.19;99902.47;5109465;28;20927;-63
2021/08/30 06:29:11;;;;;;;6.97;5.97;;;;;;;18.18;75.16;99891.59;5108744;28;20498;-63
2021/08/30 06:31:37;;;;;;;5.85;5.35;;;;;;;18.44;73.58;99908.19;5109307;28;20020;-63
2021/08/30 06:34:03;;;;;;;8.85;6.47;;;;;;;18.54;71.90;99897.81;5088524;28;20024;-63
2021/08/30 06:36:28;;;;;;;6.90;5.25;;;;;;;18.59;73.24;99902.66;5108577;28;20495;-63
2021/08/30 06:38:54;;;;;;;5.90;5.30;;;;;;;18.73;71.78;99902.59;5109443;28;20072;-63
2021/08/30 06:41:20;;;;;;;5.05;4.57;;;;;;;18.85;71.56;99901.00;5108739;28;20020;-64
2021/08/30 06:43:45;;;;;;;6.15;4.55;;;;;;;18.92;69.96;99896.47;5109192;28;20118;-63
2021/08/30 06:46:11;;;;;;;6.40;4.90;;;;;;;19.17;69.44;99899.56;5090267;28;20428;-64
2021/08/30 06:48:36;;;;;;;6.80;5.05;;;;;;;19.20;68.77;99897.28;5108732;28;20028;-64
2021/08/30 06:51:02;;;;;;;5.00;4.50;;;;;;;19.29;68.20;99898.00;5108788;28;20031;-64
2021/08/30 06:53:27;;;;;;;9.02;5.28;;;;;;;19.32;67.72;99898.41;5100850;28;20019;-63
2021/08/30 06:55:53;;;;;;;5.85;4.15;;;;;;;19.35;67.67;99910.78;5108768;28;20024;-64
2021/08/30 06:58:18;;;;;;;5.20;4.70;;;;;;;19.30;67.92;99905.09;5108459;28;20032;-64
2021/08/30 07:00:44;;;;;;;5.90;4.43;;;;;;;19.30;67.55;99896.94;5108573;28;20015;-64
2021/08/30 07:03:09;;;;;;;6.25;4.18;;;;;;;19.31;68.08;99912.25;5108138;28;20070;-63
2021/08/30 07:05:35;;;;;;;7.53;4.45;;;;;;;19.29;67.57;99906.16;5108559;28;20081;-64
2021/08/30 07:08:00;;;;;;;6.68;4.57;;;;;;;19.21;67.75;99901.69;5108064;28;20084;-64
2021/08/30 07:10:26;;;;;;;5.93;4.18;;;;;;;19.23;69.43;99912.34;5108346;28;20027;-63
2021/08/30 07:12:51;;;;;;;4.93;4.53;;;;;;;19.24;69.46;99909.44;5108637;28;20311;-63
2021/08/30 07:15:17;;;;;;;4.57;4.07;;;;;;;19.24;69.16;99906.72;5108306;28;20060;-64
2021/08/30 07:17:42;;;;;;;6.00;4.07;;;;;;;19.32;69.18;99912.00;5108623;28;20361;-64
2021/08/30 07:20:08;;;;;;;5.63;4.05;;;;;;;19.49;67.44;99916.09;5108569;28;20372;-64
2021/08/30 07:22:34;;;;;;;5.20;4.70;;;;;;;19.56;66.64;99922.41;5108197;28;20463;-62
2021/08/30 07:25:00;;;;;;;4.38;3.92;;;;;;;19.55;67.48;99907.13;5108264;28;20019;-63
2021/08/30 07:27:25;;;;;;;5.95;4.10;;;;;;;19.80;65.95;99929.22;5108698;28;20037;-64
2021/08/30 07:29:51;;;;;;;5.53;3.95;;;;;;;19.80;67.26;99905.56;5108434;28;20100;-64
2021/08/30 07:32:17;;;;;;;5.10;3.63;;;;;;;19.94;67.53;99931.78;5107992;28;20031;-63
2021/08/30 07:34:43;;;;;;;3.55;3.22;;;;;;;19.98;67.54;99933.06;5108502;28;20037;-63
2021/08/30 07:37:08;;;;;;;5.25;4.22;;;;;;;20.04;67.36;99932.25;5107337;28;20020;-64
2021/08/30 07:39:34;;;;;;;4.80;4.15;;;;;;;20.13;66.39;99941.91;5108039;28;20024;-65
2021/08/30 07:42:00;;;;;;;6.07;4.15;;;;;;;20.21;65.88;99938.19;5108234;28;20080;-64
2021/08/30 07:44:26;;;;;;;4.07;3.63;;;;;;;20.23;66.23;99948.88;5089807;28;20084;-64
2021/08/30 07:46:51;;;;;;;7.18;4.13;;;;;;;20.20;65.77;99944.69;5107971;28;20380;-64
2021/08/30 07:49:17;;;;;;;6.95;4.43;;;;;;;20.28;65.10;99949.09;5107912;28;20044;-64
2021/08/30 07:51:43;;;;;;;4.68;3.75;;;;;;;20.27;65.21;99948.25;5107627;28;20493;-63
2021/08/30 07:54:09;;;;;;;4.20;3.80;;;;;;;20.34;64.94;99962.72;5107336;28;20459;-63
2021/08/30 07:56:38;;;;;;;5.88;4.50;;;;;;;20.37;64.29;99964.22;5107341;28;20019;-64
2021/08/30 07:59:05;;;;;;;6.55;4.75;;;;;;;20.32;63.29;99947.63;5089130;28;20028;-64
2021/08/30 08:01:31;;;;;;;6.53;4.70;;;;;;;20.41;63.35;99962.75;5105817;28;20023;-64
2021/08/30 08:03:56;;;;;;;5.63;4.10;;;;;;;20.47;63.58;99946.41;5105767;28;20485;-62
2021/08/30 08:06:22;;;;;;;4.53;4.13;;;;;;;20.66;63.51;99956.50;5107520;28;20024;-63
2021/08/30 08:08:47;;;;;;;6.22;4.20;;;;;;;20.82;63.39;99955.25;5088287;28;20471;-63
2021/08/30 08:11:14;;;;;;;6.47;4.57;;;;;;;21.06;62.83;99962.84;5105772;28;20032;-64
2021/08/30 08:13:39;;;;;;;4.97;4.00;;;;;;;21.34;61.97;99957.97;5104942;28;20015;-63
2021/08/30 08:16:05;;;;;;;5.68;3.70;;;;;;;21.75;60.74;99962.13;5104752;28;20054;-63
2021/08/30 08:18:32;;;;;;;4.03;3.53;;;;;;;22.34;58.69;99956.38;5103736;28;20072;-63
2021/08/30 08:21:00;;;;;;;4.10;3.58;;;;;;;23.03;56.79;99956.34;5104698;28;20462;-63
2021/08/30 08:23:26;;;;;;;5.30;3.75;;;;;;;23.91;53.00;99950.38;5104438;28;20037;-63
2021/08/30 08:25:51;;;;;;;3.58;3.28;;;;;;;24.74;51.13;99954.97;5107280;28;20019;-63
2021/08/30 08:28:17;;;;;;;3.00;2.80;;;;;;;25.57;48.41;99952.91;5106745;28;20074;-64
2021/08/30 08:30:42;;;;;;;3.60;3.30;;;;;;;26.15;46.36;99950.91;5088818;28;20042;-64
2021/08/30 08:33:08;;;;;;;4.20;3.33;;;;;;;26.50;44.70;99957.94;5106702;28;20023;-64
2021/08/30 08:35:34;;;;;;;5.72;4.18;;;;;;;26.44;44.32;99947.91;5106871;28;20031;-63
2021/08/30 08:37:59;;;;;;;4.93;3.63;;;;;;;26.20;45.04;99959.25;5106799;28;20053;-64
2021/08/30 08:40:25;;;;;;;3.90;3.60;;;;;;;25.98;45.14;99959.09;5107064;28;20051;-63
2021/08/30 08:42:50;;;;;;;4.90;3.85;;;;;;;25.70;46.24;99958.97;5106981;28;20471;-64
2021/08/30 08:45:17;;;;;;;3.75;3.45;;;;;;;25.53;46.69;99963.53;5106791;28;20088;-62
2021/08/30 08:47:44;;;;;;;3.88;3.58;;;;;;;25.41;46.11;99959.13;5107078;28;20066;-63
2021/08/30 08:50:12;;;;;;;4.72;3.92;;;;;;;25.16;46.32;99961.25;5106195;28;20495;-62
2021/08/30 08:52:41;;;;;;;4.05;3.63;;;;;;;24.67;47.24;99967.13;5106594;28;20027;-64
2021/08/30 08:55:07;;;;;;;4.93;3.78;;;;;;;24.42;48.25;99969.97;5106770;28;20395;-63
2021/08/30 08:57:33;;;;;;;6.00;3.58;;;;;;;24.27;48.28;99972.28;5106386;28;20031;-63
2021/08/30 09:00:00;;;;;;;3.88;3.15;;;;;;;24.01;48.60;99967.13;5106643;28;20028;-65
2021/08/30 09:02:28;;;;;;;4.10;3.10;;;;;;;23.81;49.37;99975.59;5106346;28;20032;-62
2021/08/30 09:04:55;;;;;;;4.28;3.20;;;;;;;23.72;49.58;99968.72;5106440;28;20046;-63
2021/08/30 09:07:35;;;;;;;3.70;3.10;;;;;;;23.52;50.60;99964.53;5088004;28;20396;-63
2021/08/30 09:10:02;;;;;;;5.30;3.00;;;;;;;23.38;51.54;99963.00;5106482;28;20068;-63
2021/08/30 09:12:28;;;;;;;3.47;3.17;;;;;;;23.32;51.60;99962.00;5106060;28;20353;-63
2021/08/30 09:14:54;;;;;;;3.83;3.40;;;;;;;23.47;50.84;99970.66;5106723;28;20034;-63
2021/08/30 09:17:19;;;;;;;4.63;3.60;;;;;;;23.38;50.33;99963.00;5106400;28;20531;-63
2021/08/30 09:19:54;;;;;;;4.43;3.42;;;;;;;23.35;50.19;99985.34;5106527;28;20031;-63
2021/08/30 09:22:31;;;;;;;3.55;3.22;;;;;;;23.20;50.64;99971.97;5106483;28;20035;-63
2021/08/30 09:25:18;;;;;;;4.20;3.10;;;;;;;23.16;50.24;99975.38;5088819;28;20020;-63
2021/08/30 09:27:47;;;;;;;3.65;3.03;;;;;;;23.08;50.48;99973.75;5106326;28;20390;-63
2021/08/30 09:30:16;;;;;;;3.55;3.25;;;;;;;23.00;51.05;99973.19;5107226;28;20076;-63
2021/08/30 09:32:46;;;;;;;5.78;3.70;;;;;;;22.90;51.28;99984.66;5110442;28;20059;-63
2021/08/30 09:35:12;;;;;;;4.13;3.40;;;;;;;22.84;52.18;99982.78;5110411;28;20471;-63
2021/08/30 09:37:39;;;;;;;5.18;3.47;;;;;;;22.91;52.35;99972.63;5110333;28;20030;-63
2021/08/30 09:40:11;;;;;;;4.25;3.47;;;;;;;22.87;51.97;99976.88;5091942;28;20034;-63
2021/08/30 09:42:40;;;;;;;3.85;3.40;;;;;;;22.93;51.53;99984.19;5109922;28;20445;-63
2021/08/30 09:45:21;;;;;;;3.53;3.22;;;;;;;22.88;51.37;99977.69;5092386;28;20027;-63
2021/08/30 09:47:55;;;;;;;3.53;3.22;;;;;;;22.86;51.92;99974.38;5114697;28;20106;-63
2021/08/30 09:50:33;;;;;;;3.65;3.00;;;;;;;22.91;51.83;99978.09;5091477;28;20039;-63
2021/08/30 09:53:00;;;;;;;4.22;3.15;;;;;;;22.86;51.95;99974.38;5110202;28;20537;-63
2021/08/30 09:55:30;;;;;;;4.38;3.20;;;;;;;22.97;51.68;99979.09;5110196;28;20015;-62
2021/08/30 09:57:57;;;;;;;3.42;2.75;;;;;;;22.96;51.59;99988.38;5112919;28;20055;-63
2021/08/30 10:00:24;;;;;;;3.40;3.10;;;;;;;23.08;50.79;99984.69;5110410;28;20028;-63
2021/08/30 10:02:53;;;;;;;5.40;2.85;;;;;;;23.01;50.86;99977.59;5091577;28;20788;-64
2021/08/30 10:05:19;;;;;;;2.63;2.42;;;;;;;22.92;51.36;99985.25;5109469;28;20485;-62
2021/08/30 10:07:46;;;;;;;4.00;2.60;;;;;;;22.82;51.20;99971.22;5109714;28;20023;-63
2021/08/30 10:10:26;;;;;;;3.28;2.20;;;;;;;22.85;51.12;99967.19;5109743;28;20035;-63
2021/08/30 10:12:52;;;;;;;3.17;2.88;;;;;;;22.87;50.61;99976.88;5111079;28;20027;-63
2021/08/30 10:15:20;;;;;;;2.50;2.30;;;;;;;22.88;50.85;99974.97;5109149;28;20020;-62
2021/08/30 10:17:49;;;;;;;4.22;2.45;;;;;;;22.83;51.22;99974.81;5109326;28;20042;-63
2021/08/30 10:20:23;;;;;;;3.35;2.35;;;;;;;22.83;51.23;99978.34;5109299;28;20059;-63
2021/08/30 10:22:57;;;;;;;2.92;2.63;;;;;;;22.88;50.73;99980.44;5109444;28;20024;-63
2021/08/30 10:25:23;;;;;;;2.72;2.53;;;;;;;22.83;51.24;99970.16;5109340;28;20035;-63
2021/08/30 10:28:01;;;;;;;3.33;2.75;;;;;;;22.88;50.82;99986.75;5109532;28;20071;-63
2021/08/30 10:30:32;;;;;;;3.42;2.58;;;;;;;22.91;50.19;99980.84;5109297;28;20015;-64
2021/08/30 10:33:00;;;;;;;2.97;2.40;;;;;;;22.96;49.91;99978.25;5109633;28;20107;-64
2021/08/30 10:35:31;;;;;;;2.58;2.38;;;;;;;22.91;49.76;99952.63;5109561;28;20035;-63
2021/08/30 10:38:17;;;;;;;2.80;2.13;;;;;;;23.07;49.72;99985.75;5109675;28;20024;-63
2021/08/30 10:40:48;;;;;;;4.20;2.35;;;;;;;23.12;49.58;99971.41;5109047;28;20088;-63
2021/08/30 10:43:15;;;;;;;4.07;2.40;;;;;;;23.12;49.45;99983.19;5108089;28;20035;-65
2021/08/30 10:45:50;;;;;;;3.33;2.78;;;;;;;23.17;49.05;99977.88;5109192;28;20028;-62
2021/08/30 10:48:17;;;;;;;3.13;2.28;;;;;;;23.31;48.35;99978.66;5090222;28;20055;-65
2021/08/30 10:50:46;;;;;;;2.60;2.38;;;;;;;23.28;48.69;99974.44;5109024;28;20073;-66
2021/08/30 10:53:19;;;;;;;2.33;2.13;;;;;;;23.37;47.83;99984.03;5108639;28;20024;-64
2021/08/30 10:55:47;;;;;;;4.18;2.30;;;;;;;23.35;47.77;99974.38;5109115;28;20436;-63
2021/08/30 10:58:24;;;;;;;3.92;2.47;;;;;;;23.34;47.87;99980.94;5108620;28;20028;-64
2021/08/30 11:00:52;;;;;;;2.35;2.15;;;;;;;23.27;48.02;99966.44;5109074;28;20039;-64
2021/08/30 11:03:35;;;;;;;3.10;2.40;;;;;;;23.26;48.10;99968.38;5108668;28;20115;-64
2021/08/30 11:06:27;;;;;;;2.72;2.20;;;;;;;23.26;48.45;99987.53;5109248;28;20019;-63
2021/08/30 11:08:53;;;;;;;4.57;2.22;;;;;;;23.45;46.36;99985.66;5105027;28;20039;-65
2021/08/30 11:11:27;;;;;;;2.80;2.00;;;;;;;23.48;46.17;99977.00;5109324;28;20028;-63
2021/08/30 11:14:09;;;;;;;2.58;2.17;;;;;;;23.47;46.62;99975.34;5091084;28;20055;-65
2021/08/30 11:16:38;;;;;;;2.50;2.30;;;;;;;23.50;46.78;99977.59;5108471;28;20517;-64
2021/08/30 11:19:07;;;;;;;3.15;2.20;;;;;;;23.46;46.86;99981.84;5108691;28;20031;-65
2021/08/30 11:21:50;;;;;;;2.55;2.28;;;;;;;23.45;47.02;99988.41;5108862;28;20386;-64
2021/08/30 11:24:34;;;;;;;2.80;2.20;;;;;;;23.46;46.58;99982.69;5108198;28;20023;-65
2021/08/30 11:27:15;;;;;;;2.42;2.22;;;;;;;23.46;46.27;99993.66;5108996;28;20114;-65
2021/08/30 11:29:46;;;;;;;4.72;2.05;;;;;;;23.48;45.78;99991.53;5108659;28;20030;-65
2021/08/30 11:32:14;;;;;;;5.22;2.40;;;;;;;23.30;46.19;99986.00;5108402;28;20486;-65
2021/08/30 11:34:40;;;;;;;4.45;2.22;;;;;;;23.26;46.18;99986.69;5109214;28;20034;-65
2021/08/30 11:37:08;;;;;;;2.22;2.03;;;;;;;23.24;45.64;99986.06;5108836;28;20165;-64
2021/08/30 11:39:37;;;;;;;2.78;2.20;;;;;;;23.16;44.96;99975.38;5108776;28;20035;-64